Time;durP1;ratioP1;P1;durP2;ratioP2;P2;SDS_P1;SDS_P2;PMS_P1;PMS_P2;Temp;Humidity;BMP_temperature;BMP_pressure;BME280_temperature;BME280_humidity;BME280_pressure;Samples;Min_cycle;Max_cycle;Signal;HPM_P1;HPM_P2
2021/12/12 00:01:05;;;;;;;0.00;0.00;;;10.20;99.90;;;;;;4993819;28;20423;-76
2021/12/12 00:03:39;;;;;;;0.00;0.00;;;10.20;99.90;;;;;;4994392;28;20038;-76
2021/12/12 00:06:18;;;;;;;0.00;0.00;;;10.20;99.90;;;;;;4994287;28;20105;-76
2021/12/12 00:08:49;;;;;;;0.52;0.43;;;10.30;99.90;;;;;;4994563;28;20425;-75
2021/12/12 00:11:18;;;;;;;1.25;1.15;;;10.30;99.90;;;;;;5013675;28;20037;-76
2021/12/12 00:13:57;;;;;;;0.00;0.00;;;10.30;99.90;;;;;;4994380;28;20058;-76
2021/12/12 00:16:23;;;;;;;0.00;0.00;;;10.40;99.90;;;;;;4994033;28;20034;-76
2021/12/12 00:18:49;;;;;;;0.00;0.00;;;10.40;99.90;;;;;;4993918;28;20027;-76
2021/12/12 00:21:18;;;;;;;0.00;0.00;;;10.40;99.90;;;;;;4993695;28;20473;-76
2021/12/12 00:23:44;;;;;;;5.47;2.03;;;10.40;99.90;;;;;;4993871;28;20489;-76
2021/12/12 00:26:10;;;;;;;0.00;0.00;;;10.30;99.90;;;;;;5003592;28;20117;-76
2021/12/12 00:28:36;;;;;;;0.00;0.00;;;10.40;99.90;;;;;;5012277;28;20129;-76
2021/12/12 00:31:09;;;;;;;0.35;0.35;;;10.40;99.90;;;;;;5013611;28;20034;-76
2021/12/12 00:33:36;;;;;;;0.28;0.28;;;10.40;99.90;;;;;;5012991;28;20062;-76
2021/12/12 00:36:04;;;;;;;0.00;0.00;;;10.40;99.90;;;;;;5013401;28;20034;-76
2021/12/12 00:38:31;;;;;;;0.10;0.10;;;10.40;99.90;;;;;;5013097;28;20018;-76
2021/12/12 00:41:04;;;;;;;0.10;0.10;;;10.30;99.90;;;;;;5013187;28;20025;-76
2021/12/12 00:43:34;;;;;;;0.30;0.30;;;10.30;99.90;;;;;;5013495;28;20014;-76
2021/12/12 00:46:04;;;;;;;0.00;0.00;;;10.20;99.90;;;;;;5012598;28;20033;-76
2021/12/12 00:48:33;;;;;;;0.00;0.00;;;10.20;99.90;;;;;;5011884;28;20045;-76
2021/12/12 00:51:01;;;;;;;0.00;0.00;;;10.10;99.90;;;;;;5013355;28;20109;-76
2021/12/12 00:53:27;;;;;;;2.25;1.35;;;10.10;99.90;;;;;;5012747;28;20026;-76
2021/12/12 00:55:54;;;;;;;0.05;0.05;;;10.20;99.90;;;;;;5013227;28;20083;-76
2021/12/12 00:58:22;;;;;;;0.00;0.00;;;10.20;99.90;;;;;;5012556;28;20128;-76
2021/12/12 01:00:55;;;;;;;2.40;1.35;;;10.10;99.90;;;;;;5012546;28;20389;-76
2021/12/12 01:03:30;;;;;;;2.25;2.05;;;10.10;99.90;;;;;;5012828;28;20571;-76
2021/12/12 01:05:58;;;;;;;0.15;0.15;;;10.20;99.90;;;;;;5012544;28;20026;-76
2021/12/12 01:08:25;;;;;;;0.40;0.40;;;10.20;99.90;;;;;;5012487;28;20757;-76
2021/12/12 01:10:58;;;;;;;0.00;0.00;;;10.20;99.90;;;;;;4992422;28;20025;-76
2021/12/12 01:13:24;;;;;;;0.30;0.30;;;10.20;99.90;;;;;;4992355;28;20018;-76
2021/12/12 01:15:59;;;;;;;0.05;0.05;;;10.20;99.90;;;;;;4993159;28;20037;-76
2021/12/12 01:18:32;;;;;;;0.20;0.20;;;10.20;99.90;;;;;;4991583;28;20029;-76
2021/12/12 01:21:06;;;;;;;0.15;0.15;;;10.20;99.90;;;;;;4992789;28;20401;-76
2021/12/12 01:23:40;;;;;;;1.42;1.17;;;10.20;99.90;;;;;;4993093;28;20123;-76
2021/12/12 01:26:08;;;;;;;0.40;0.40;;;10.20;99.90;;;;;;5002389;28;20385;-76
2021/12/12 01:28:37;;;;;;;0.43;0.43;;;10.20;99.90;;;;;;5012463;28;20584;-76
2021/12/12 01:31:07;;;;;;;0.05;0.05;;;10.20;99.90;;;;;;5012930;28;20034;-75
2021/12/12 01:33:35;;;;;;;7.13;1.75;;;10.20;99.90;;;;;;5012300;28;20103;-76
2021/12/12 01:36:24;;;;;;;0.52;0.52;;;10.20;99.90;;;;;;5012438;28;20026;-76
2021/12/12 01:38:53;;;;;;;0.10;0.10;;;10.30;99.90;;;;;;5012562;28;20033;-76
2021/12/12 01:41:36;;;;;;;0.00;0.00;;;10.30;99.90;;;;;;5012067;28;20033;-76
2021/12/12 01:44:17;;;;;;;1.27;1.02;;;10.40;99.90;;;;;;5012403;28;20097;-76
2021/12/12 01:46:49;;;;;;;0.00;0.00;;;10.40;99.90;;;;;;5012565;28;20083;-76
2021/12/12 01:49:22;;;;;;;0.00;0.00;;;10.40;99.90;;;;;;5012394;28;20045;-76
2021/12/12 01:51:49;;;;;;;0.25;0.25;;;10.40;99.90;;;;;;5012237;28;20168;-76
2021/12/12 01:54:21;;;;;;;0.00;0.00;;;10.40;99.90;;;;;;5012260;28;20053;-76
2021/12/12 01:56:54;;;;;;;0.00;0.00;;;10.40;99.90;;;;;;5014296;28;20037;-76
2021/12/12 01:59:23;;;;;;;0.00;0.00;;;10.40;99.90;;;;;;5016142;28;20026;-76
2021/12/12 02:01:56;;;;;;;0.98;0.20;;;10.40;99.90;;;;;;5015807;28;20041;-76
2021/12/12 02:04:27;;;;;;;3.03;0.90;;;10.40;99.90;;;;;;5015695;28;20112;-76
2021/12/12 02:06:54;;;;;;;16.80;0.65;;;10.40;99.90;;;;;;5016169;28;20033;-76
2021/12/12 02:09:21;;;;;;;0.35;0.25;;;10.40;99.90;;;;;;5009768;28;20385;-76
2021/12/12 02:11:51;;;;;;;0.00;0.00;;;10.40;99.90;;;;;;4995842;28;20120;-76
2021/12/12 02:14:19;;;;;;;1.10;0.65;;;10.50;99.90;;;;;;4996238;28;20582;-76
2021/12/12 02:16:49;;;;;;;0.00;0.00;;;10.40;99.90;;;;;;4996120;28;20034;-76
2021/12/12 02:19:18;;;;;;;0.98;0.95;;;10.40;99.90;;;;;;4995863;28;20030;-76
2021/12/12 02:38:18;;;;;;;0.00;0.00;;;10.40;99.90;;;;;;4995708;28;20050;-76
2021/12/12 02:40:49;;;;;;;0.05;0.05;;;10.40;99.90;;;;;;4995853;28;20069;-77
2021/12/12 02:43:20;;;;;;;0.20;0.20;;;10.40;99.90;;;;;;4995773;28;20024;-77
2021/12/12 02:45:47;;;;;;;4.75;1.02;;;10.40;99.90;;;;;;4995961;28;20105;-77
2021/12/12 02:48:18;;;;;;;0.00;0.00;;;10.40;99.90;;;;;;4995593;28;20040;-76
2021/12/12 02:50:49;;;;;;;1.85;0.80;;;10.40;99.90;;;;;;4994899;28;20042;-76
2021/12/12 02:53:26;;;;;;;0.00;0.00;;;10.40;99.90;;;;;;4994090;28;20494;-76
2021/12/12 02:55:56;;;;;;;0.68;0.68;;;10.40;99.90;;;;;;4995872;28;20030;-76
2021/12/12 02:58:24;;;;;;;0.00;0.00;;;10.40;99.90;;;;;;4995164;28;20062;-77
2021/12/12 03:01:14;;;;;;;0.10;0.10;;;10.40;99.90;;;;;;4995291;28;20026;-76
2021/12/12 03:03:40;;;;;;;1.27;0.93;;;10.40;99.90;;;;;;4994881;28;20489;-76
2021/12/12 03:06:09;;;;;;;0.52;0.47;;;10.40;99.90;;;;;;4995320;28;20073;-76
2021/12/12 03:08:39;;;;;;;0.00;0.00;;;10.40;99.90;;;;;;4992439;28;20030;-76
2021/12/12 03:11:05;;;;;;;0.10;0.10;;;10.40;99.90;;;;;;4995504;28;20026;-76
2021/12/12 03:13:31;;;;;;;0.00;0.00;;;10.40;99.90;;;;;;4994531;28;20062;-77
2021/12/12 03:15:56;;;;;;;0.10;0.10;;;10.40;99.90;;;;;;4995241;28;20058;-76
2021/12/12 03:18:33;;;;;;;0.00;0.00;;;10.40;99.90;;;;;;4994918;28;20236;-77
2021/12/12 03:21:03;;;;;;;0.00;0.00;;;10.40;99.90;;;;;;4994952;28;20026;-76
2021/12/12 03:23:33;;;;;;;0.00;0.00;;;10.40;99.90;;;;;;4995220;28;20069;-76
2021/12/12 03:26:07;;;;;;;0.00;0.00;;;10.40;99.90;;;;;;5004500;28;20014;-76
2021/12/12 03:28:38;;;;;;;0.00;0.00;;;10.40;99.90;;;;;;5013742;28;20442;-77
2021/12/12 03:31:09;;;;;;;0.00;0.00;;;10.40;99.90;;;;;;5014507;28;20371;-77
2021/12/12 03:33:35;;;;;;;0.00;0.00;;;10.30;99.90;;;;;;5014274;28;20506;-76
2021/12/12 03:36:05;;;;;;;0.00;0.00;;;10.40;99.90;;;;;;5014502;28;20104;-76
2021/12/12 03:38:33;;;;;;;0.00;0.00;;;10.30;99.90;;;;;;5014574;28;20112;-77
2021/12/12 03:41:04;;;;;;;0.00;0.00;;;10.30;99.90;;;;;;5014108;28;20030;-76
2021/12/12 03:43:29;;;;;;;1.55;0.20;;;10.30;99.90;;;;;;5012997;28;20485;-77
2021/12/12 03:45:56;;;;;;;0.00;0.00;;;10.30;99.90;;;;;;5014279;28;20037;-77
2021/12/12 03:48:27;;;;;;;0.00;0.00;;;10.30;99.90;;;;;;5014299;28;20044;-77
2021/12/12 03:50:56;;;;;;;0.00;0.00;;;10.30;99.90;;;;;;5013900;28;20018;-77
2021/12/12 03:53:22;;;;;;;0.10;0.10;;;10.30;99.90;;;;;;5013839;28;20116;-77
2021/12/12 03:55:52;;;;;;;0.10;0.10;;;10.30;99.90;;;;;;5014476;28;20022;-77
2021/12/12 03:58:18;;;;;;;0.00;0.00;;;10.30;99.90;;;;;;5013704;28;20046;-77
2021/12/12 04:00:49;;;;;;;0.00;0.00;;;10.30;99.90;;;;;;5013531;28;20117;-77
2021/12/12 04:03:16;;;;;;;0.00;0.00;;;10.30;99.90;;;;;;5013944;28;20018;-77
2021/12/12 04:05:54;;;;;;;0.00;0.00;;;10.30;99.90;;;;;;5013818;28;20026;-77
2021/12/12 04:08:26;;;;;;;0.00;0.00;;;10.30;99.90;;;;;;5013965;28;20026;-77
2021/12/12 04:10:52;;;;;;;0.00;0.00;;;10.20;99.90;;;;;;5012460;28;20033;-77
2021/12/12 04:13:17;;;;;;;0.00;0.00;;;10.20;99.90;;;;;;4997747;28;20022;-76
2021/12/12 04:15:47;;;;;;;0.00;0.00;;;10.20;99.90;;;;;;4993351;28;20039;-76
2021/12/12 04:18:13;;;;;;;0.00;0.00;;;10.20;99.90;;;;;;4993940;28;20041;-76
2021/12/12 04:20:39;;;;;;;0.00;0.00;;;10.20;99.90;;;;;;4992775;28;20034;-76
2021/12/12 04:23:18;;;;;;;0.10;0.10;;;10.20;99.90;;;;;;4993931;28;20027;-76
2021/12/12 04:25:44;;;;;;;0.00;0.00;;;10.20;99.90;;;;;;5001108;28;20340;-76
2021/12/12 04:28:10;;;;;;;1.33;1.23;;;10.20;99.90;;;;;;5012367;28;20022;-76
2021/12/12 04:30:35;;;;;;;0.13;0.13;;;10.10;99.90;;;;;;5013504;28;20018;-77
2021/12/12 04:33:01;;;;;;;0.00;0.00;;;10.10;99.90;;;;;;5013563;28;20026;-77
2021/12/12 04:35:27;;;;;;;0.00;0.00;;;10.10;99.90;;;;;;5013005;28;20060;-76
2021/12/12 04:37:55;;;;;;;0.00;0.00;;;10.10;99.90;;;;;;5013081;28;20026;-77
2021/12/12 04:40:23;;;;;;;0.52;0.52;;;10.10;99.90;;;;;;5012169;28;20540;-77
2021/12/12 04:42:51;;;;;;;0.00;0.00;;;10.00;99.90;;;;;;5013241;28;20025;-76
2021/12/12 04:45:38;;;;;;;0.00;0.00;;;10.00;99.90;;;;;;5013145;28;20029;-76
2021/12/12 04:51:13;;;;;;;0.10;0.10;;;10.00;99.90;;;;;;5012927;28;20084;-76
2021/12/12 04:54:03;;;;;;;0.00;0.00;;;10.10;99.90;;;;;;5012957;28;20026;-76
2021/12/12 04:56:31;;;;;;;0.03;0.03;;;10.10;99.90;;;;;;5011871;28;20064;-76
2021/12/12 04:59:38;;;;;;;0.00;0.00;;;10.00;99.90;;;;;;5005133;28;20101;-76
2021/12/12 05:02:28;;;;;;;0.00;0.00;;;10.00;99.90;;;;;;4992985;28;20019;-76
2021/12/12 05:05:04;;;;;;;0.00;0.00;;;10.00;99.90;;;;;;4993040;28;20394;-77
2021/12/12 05:07:36;;;;;;;0.82;0.70;;;10.10;99.90;;;;;;4993337;28;20112;-77
2021/12/12 05:10:11;;;;;;;0.32;0.32;;;10.10;99.90;;;;;;4992856;28;20620;-77
2021/12/12 05:12:49;;;;;;;0.00;0.00;;;10.00;99.90;;;;;;4992599;28;20029;-77
2021/12/12 05:15:33;;;;;;;0.00;0.00;;;10.10;99.90;;;;;;4993039;28;20022;-77
2021/12/12 05:18:04;;;;;;;0.00;0.00;;;10.10;99.90;;;;;;4993076;28;20054;-76
2021/12/12 05:20:35;;;;;;;0.00;0.00;;;10.10;99.90;;;;;;4992491;28;20018;-76
2021/12/12 05:23:05;;;;;;;7.78;0.38;;;10.10;99.90;;;;;;4993418;28;20401;-77
2021/12/12 05:26:05;;;;;;;0.00;0.00;;;10.10;99.90;;;;;;4998681;28;20029;-76
2021/12/12 05:28:41;;;;;;;0.00;0.00;;;10.10;99.90;;;;;;4979488;28;20587;-76
2021/12/12 05:31:09;;;;;;;0.00;0.00;;;10.10;99.90;;;;;;5012229;28;20033;-75
2021/12/12 05:33:35;;;;;;;0.22;0.20;;;10.10;99.90;;;;;;5012191;28;20036;-76
2021/12/12 05:36:01;;;;;;;0.00;0.00;;;10.10;99.90;;;;;;5012728;28;20025;-76
2021/12/12 05:38:29;;;;;;;0.00;0.00;;;10.10;99.90;;;;;;5012505;28;20503;-76
2021/12/12 05:40:55;;;;;;;0.00;0.00;;;10.10;99.90;;;;;;5012513;28;20045;-76
2021/12/12 05:43:21;;;;;;;2.45;1.55;;;10.10;99.90;;;;;;5012092;28;20057;-76
2021/12/12 05:45:50;;;;;;;0.70;0.17;;;10.10;99.90;;;;;;5012556;28;20025;-76
2021/12/12 05:48:16;;;;;;;0.20;0.13;;;10.10;99.90;;;;;;5012312;28;20026;-77
2021/12/12 05:50:44;;;;;;;0.00;0.00;;;10.10;99.90;;;;;;5012248;28;20026;-76
2021/12/12 05:53:11;;;;;;;0.10;0.10;;;10.10;99.90;;;;;;5012194;28;20033;-77
2021/12/12 05:55:38;;;;;;;0.00;0.00;;;10.10;99.90;;;;;;5012640;28;20120;-77
2021/12/12 05:58:13;;;;;;;2.17;1.08;;;10.10;99.90;;;;;;5011623;28;20054;-77
2021/12/12 06:00:45;;;;;;;0.00;0.00;;;10.10;99.90;;;;;;4991283;28;20030;-77
2021/12/12 06:03:13;;;;;;;0.00;0.00;;;10.10;99.90;;;;;;4992739;28;20462;-77
2021/12/12 06:05:39;;;;;;;0.20;0.20;;;10.10;99.90;;;;;;4992727;28;20029;-76
2021/12/12 06:08:07;;;;;;;0.32;0.28;;;10.10;99.90;;;;;;4992283;28;20030;-76
2021/12/12 06:10:34;;;;;;;0.00;0.00;;;10.10;99.90;;;;;;4992433;28;20109;-76
2021/12/12 06:13:04;;;;;;;0.20;0.20;;;10.10;99.90;;;;;;5003313;28;20032;-76
2021/12/12 06:15:30;;;;;;;0.00;0.00;;;10.10;99.90;;;;;;5011957;28;20030;-76
2021/12/12 06:17:57;;;;;;;0.00;0.00;;;10.10;99.90;;;;;;5012139;28;20037;-76
2021/12/12 06:20:24;;;;;;;0.30;0.30;;;10.10;99.90;;;;;;5010367;28;20042;-76
2021/12/12 06:22:52;;;;;;;0.20;0.20;;;10.10;99.90;;;;;;5012070;28;20030;-76
2021/12/12 06:25:18;;;;;;;0.00;0.00;;;10.10;99.90;;;;;;5008134;28;20146;-76
2021/12/12 06:27:43;;;;;;;0.00;0.00;;;10.10;99.90;;;;;;4992458;28;20105;-77
2021/12/12 06:30:13;;;;;;;0.00;0.00;;;10.10;99.90;;;;;;4991307;28;20030;-77
2021/12/12 06:32:39;;;;;;;0.00;0.00;;;10.10;99.90;;;;;;4992642;28;20608;-77
2021/12/12 06:35:08;;;;;;;0.00;0.00;;;10.10;99.90;;;;;;4991170;28;20121;-77
2021/12/12 06:37:35;;;;;;;0.60;0.60;;;10.10;99.90;;;;;;5012204;28;20034;-77
2021/12/12 06:40:04;;;;;;;0.00;0.00;;;10.10;99.90;;;;;;5012042;28;20501;-77
2021/12/12 06:42:30;;;;;;;2.20;1.95;;;10.10;99.90;;;;;;5012007;28;20096;-77
2021/12/12 06:44:56;;;;;;;0.00;0.00;;;10.10;99.90;;;;;;5015120;28;20033;-77
2021/12/12 06:47:22;;;;;;;0.00;0.00;;;10.20;99.90;;;;;;5015445;28;20026;-76
2021/12/12 06:49:48;;;;;;;0.10;0.10;;;10.20;99.90;;;;;;5015103;28;20076;-76
2021/12/12 06:52:16;;;;;;;0.00;0.00;;;10.20;99.90;;;;;;5014986;28;20109;-77
2021/12/12 06:54:42;;;;;;;0.20;0.20;;;10.20;99.90;;;;;;5015352;28;20037;-77
2021/12/12 06:57:13;;;;;;;0.00;0.00;;;10.20;99.90;;;;;;5015458;28;20513;-76
2021/12/12 06:59:40;;;;;;;0.10;0.10;;;10.20;99.90;;;;;;5015037;28;20032;-76
2021/12/12 07:02:07;;;;;;;0.00;0.00;;;10.20;99.90;;;;;;5014664;28;20057;-76
2021/12/12 07:04:34;;;;;;;0.00;0.00;;;10.20;99.90;;;;;;5014988;28;20113;-76
2021/12/12 07:07:02;;;;;;;0.03;0.03;;;10.20;99.90;;;;;;5015152;28;20473;-76
2021/12/12 07:09:32;;;;;;;0.00;0.00;;;10.20;99.90;;;;;;5014486;28;20473;-76
2021/12/12 07:12:03;;;;;;;0.00;0.00;;;10.10;99.90;;;;;;5013003;28;20038;-76
2021/12/12 07:14:28;;;;;;;0.20;0.20;;;10.10;99.90;;;;;;5015113;28;20084;-76
2021/12/12 07:16:55;;;;;;;0.00;0.00;;;10.10;99.90;;;;;;5014802;28;20034;-77
2021/12/12 07:19:22;;;;;;;1.27;0.77;;;10.10;99.90;;;;;;5014627;28;20026;-77
2021/12/12 07:21:48;;;;;;;0.00;0.00;;;10.10;99.90;;;;;;5014654;28;20053;-77
2021/12/12 07:24:15;;;;;;;0.00;0.00;;;10.00;99.90;;;;;;5014511;28;20029;-77
2021/12/12 07:26:41;;;;;;;0.35;0.35;;;10.00;99.90;;;;;;4999626;28;20030;-77
2021/12/12 07:29:07;;;;;;;0.00;0.00;;;10.00;99.90;;;;;;4994026;28;20110;-77
2021/12/12 07:31:35;;;;;;;0.10;0.10;;;10.00;99.90;;;;;;4994950;28;20034;-77
2021/12/12 07:34:05;;;;;;;0.00;0.00;;;10.00;99.90;;;;;;4994843;28;20033;-77
2021/12/12 07:36:33;;;;;;;2.67;0.93;;;9.90;99.90;;;;;;4995135;28;20061;-77
2021/12/12 07:39:06;;;;;;;0.00;0.00;;;10.00;99.90;;;;;;4994688;28;20034;-77
2021/12/12 07:41:33;;;;;;;0.00;0.00;;;10.00;99.90;;;;;;4994651;28;20054;-77
2021/12/12 07:44:04;;;;;;;0.00;0.00;;;10.00;99.90;;;;;;4994898;28;20101;-76
2021/12/12 07:46:30;;;;;;;0.08;0.08;;;10.00;99.90;;;;;;4994912;28;20443;-77
2021/12/12 07:48:56;;;;;;;0.08;0.08;;;10.00;99.90;;;;;;4994412;28;20433;-77
2021/12/12 07:51:23;;;;;;;0.00;0.00;;;10.00;99.90;;;;;;4994272;28;20030;-77
2021/12/12 07:53:54;;;;;;;0.00;0.00;;;10.00;99.90;;;;;;4994204;28;20014;-77
2021/12/12 07:56:22;;;;;;;0.55;0.55;;;10.00;99.90;;;;;;4993308;28;20069;-77
2021/12/12 07:58:48;;;;;;;0.00;0.00;;;10.10;99.90;;;;;;4994362;28;20125;-76
2021/12/12 08:01:14;;;;;;;0.00;0.00;;;10.10;99.90;;;;;;4994056;28;20036;-77
2021/12/12 08:03:41;;;;;;;1.08;0.50;;;10.20;99.90;;;;;;4994205;28;20401;-76
2021/12/12 08:06:09;;;;;;;0.00;0.00;;;10.30;99.90;;;;;;4994413;28;20506;-77
2021/12/12 08:08:35;;;;;;;0.08;0.08;;;10.30;99.90;;;;;;4994156;28;20370;-77
2021/12/12 08:11:02;;;;;;;0.00;0.00;;;10.30;99.90;;;;;;4993656;28;20022;-77
2021/12/12 08:13:29;;;;;;;0.00;0.00;;;10.30;99.90;;;;;;4993649;28;20022;-77
2021/12/12 08:15:55;;;;;;;0.00;0.00;;;10.30;99.90;;;;;;4992691;28;20109;-77
2021/12/12 08:18:21;;;;;;;0.10;0.10;;;10.30;99.90;;;;;;4992591;28;20113;-77
2021/12/12 08:20:49;;;;;;;0.20;0.20;;;10.30;99.90;;;;;;4993953;28;20485;-77
2021/12/12 08:23:16;;;;;;;0.00;0.00;;;10.40;99.90;;;;;;4993943;28;20022;-77
2021/12/12 08:25:45;;;;;;;0.00;0.00;;;10.40;99.90;;;;;;5001215;28;20029;-77
2021/12/12 08:28:12;;;;;;;0.00;0.00;;;10.40;99.90;;;;;;5013401;28;20026;-77
2021/12/12 08:30:38;;;;;;;0.00;0.00;;;10.40;99.90;;;;;;5013449;28;20091;-77
2021/12/12 08:33:06;;;;;;;0.10;0.10;;;10.40;99.90;;;;;;5014669;28;20488;-78
2021/12/12 08:35:32;;;;;;;0.28;0.28;;;10.40;99.90;;;;;;5013825;28;20061;-77
2021/12/12 08:38:04;;;;;;;0.00;0.00;;;10.50;99.90;;;;;;5014813;28;20026;-77
2021/12/12 08:40:35;;;;;;;1.30;0.65;;;10.40;99.90;;;;;;5014802;28;20025;-78
2021/12/12 08:43:02;;;;;;;0.55;0.20;;;10.50;99.90;;;;;;4999135;28;20033;-78
2021/12/12 08:45:32;;;;;;;0.08;0.08;;;10.50;99.90;;;;;;4994344;28;20041;-78
2021/12/12 08:48:01;;;;;;;0.00;0.00;;;10.50;99.90;;;;;;4994096;28;20022;-78
2021/12/12 08:50:31;;;;;;;0.00;0.00;;;10.50;99.90;;;;;;4998523;28;20070;-78
2021/12/12 08:52:58;;;;;;;0.00;0.00;;;10.60;99.90;;;;;;4994192;28;20018;-78
2021/12/12 08:55:32;;;;;;;0.15;0.15;;;10.60;99.90;;;;;;4993701;28;20034;-78
2021/12/12 08:58:14;;;;;;;0.00;0.00;;;10.60;99.90;;;;;;4993294;28;20073;-78
2021/12/12 09:00:48;;;;;;;0.00;0.00;;;10.70;99.90;;;;;;4993044;28;20105;-78
2021/12/12 09:03:35;;;;;;;0.00;0.00;;;10.70;99.90;;;;;;4993354;28;20030;-78
2021/12/12 09:06:03;;;;;;;0.00;0.00;;;10.70;99.90;;;;;;4993112;28;20106;-78
2021/12/12 09:08:52;;;;;;;1.75;1.38;;;10.80;99.90;;;;;;4993951;28;20053;-78
2021/12/12 09:11:25;;;;;;;0.00;0.00;;;10.80;99.90;;;;;;4993588;28;20030;-78
2021/12/12 09:14:10;;;;;;;1.25;0.40;;;10.70;99.90;;;;;;4993224;28;20030;-78
2021/12/12 09:16:43;;;;;;;0.08;0.08;;;10.70;99.90;;;;;;4995789;28;20026;-77
2021/12/12 09:19:28;;;;;;;0.00;0.00;;;10.80;99.90;;;;;;4991883;28;20122;-77
2021/12/12 09:22:00;;;;;;;0.05;0.05;;;10.80;99.90;;;;;;4992605;28;20031;-77
2021/12/12 09:24:43;;;;;;;0.00;0.00;;;10.80;99.90;;;;;;4993021;28;20023;-77
2021/12/12 09:27:14;;;;;;;0.00;0.00;;;10.90;99.90;;;;;;5011913;28;20057;-78
2021/12/12 09:29:53;;;;;;;0.00;0.00;;;10.90;99.90;;;;;;5012479;28;20481;-77
2021/12/12 09:32:51;;;;;;;0.00;0.00;;;10.90;99.90;;;;;;5011604;28;20061;-77
2021/12/12 09:35:31;;;;;;;0.00;0.00;;;10.90;99.90;;;;;;5009196;28;20041;-77
2021/12/12 09:37:56;;;;;;;0.00;0.00;;;10.90;99.90;;;;;;5012694;28;20543;-77
2021/12/12 09:40:35;;;;;;;0.00;0.00;;;11.00;99.90;;;;;;5011951;28;20061;-77
2021/12/12 09:43:35;;;;;;;0.08;0.08;;;11.00;99.90;;;;;;5012339;28;20029;-77
2021/12/12 09:47:00;;;;;;;0.00;0.00;;;11.10;99.90;;;;;;5011169;28;20022;-76
2021/12/12 09:52:55;;;;;;;0.40;0.30;;;11.10;99.90;;;;;;4992639;28;20559;-77
2021/12/12 09:55:32;;;;;;;0.30;0.30;;;11.10;99.90;;;;;;4992795;28;20413;-76
2021/12/12 09:58:11;;;;;;;0.00;0.00;;;11.20;99.90;;;;;;4992666;28;20045;-76
2021/12/12 10:00:49;;;;;;;1.98;0.40;;;11.20;99.90;;;;;;4992669;28;20062;-76
2021/12/12 10:03:48;;;;;;;1.88;0.85;;;11.30;99.90;;;;;;4992357;28;20034;-77
2021/12/12 10:06:24;;;;;;;0.15;0.13;;;11.30;99.90;;;;;;4991372;28;20473;-77
2021/12/12 10:09:12;;;;;;;0.10;0.10;;;11.40;99.90;;;;;;4992527;28;20029;-76
2021/12/12 10:11:48;;;;;;;2.58;0.38;;;11.40;99.90;;;;;;4990225;28;20058;-76
2021/12/12 10:14:17;;;;;;;0.00;0.00;;;11.40;99.90;;;;;;4992296;28;20042;-76
2021/12/12 10:16:51;;;;;;;0.00;0.00;;;11.40;99.90;;;;;;4991215;28;20034;-76
2021/12/12 10:19:35;;;;;;;0.10;0.10;;;11.40;99.90;;;;;;4994809;28;20037;-76
2021/12/12 10:22:19;;;;;;;0.32;0.10;;;11.40;99.90;;;;;;4996134;28;20054;-75
2021/12/12 10:25:04;;;;;;;0.85;0.40;;;11.40;99.90;;;;;;4996241;28;20022;-75
2021/12/12 10:27:45;;;;;;;0.40;0.40;;;11.40;99.90;;;;;;4996358;28;20018;-75
2021/12/12 10:30:32;;;;;;;0.00;0.00;;;11.40;99.90;;;;;;4995828;28;20080;-76
2021/12/12 10:33:16;;;;;;;2.10;0.32;;;11.50;99.90;;;;;;4995529;28;20035;-75
2021/12/12 10:35:47;;;;;;;0.43;0.43;;;11.60;99.90;;;;;;4995903;28;20030;-75
2021/12/12 10:38:40;;;;;;;0.28;0.28;;;11.60;99.90;;;;;;4995756;28;20030;-77
2021/12/12 10:41:09;;;;;;;0.00;0.00;;;11.70;99.90;;;;;;4996041;28;20489;-75
2021/12/12 10:43:49;;;;;;;0.00;0.00;;;11.70;99.90;;;;;;4996080;28;20560;-76
2021/12/12 10:46:28;;;;;;;0.00;0.00;;;11.70;99.90;;;;;;4995434;28;20077;-75
2021/12/12 10:49:01;;;;;;;0.10;0.10;;;11.70;99.90;;;;;;4995349;28;20037;-75
2021/12/12 10:51:34;;;;;;;0.00;0.00;;;11.80;99.90;;;;;;4995803;28;20026;-75
2021/12/12 10:54:24;;;;;;;0.35;0.35;;;11.90;99.90;;;;;;4995586;28;20014;-75
2021/12/12 10:56:53;;;;;;;1.00;0.32;;;12.00;99.90;;;;;;4995353;28;20073;-76
2021/12/12 10:59:23;;;;;;;0.40;0.40;;;11.90;99.90;;;;;;4995523;28;20497;-75
2021/12/12 11:01:58;;;;;;;1.98;0.17;;;12.00;99.90;;;;;;4995114;28;20077;-76
2021/12/12 11:04:33;;;;;;;6.43;1.08;;;11.90;99.90;;;;;;4995043;28;20591;-75
2021/12/12 11:07:10;;;;;;;0.15;0.05;;;11.90;99.90;;;;;;4995336;28;20026;-75
2021/12/12 11:09:44;;;;;;;0.43;0.10;;;11.90;99.90;;;;;;4995176;28;20014;-76
2021/12/12 11:12:19;;;;;;;0.65;0.15;;;12.00;99.90;;;;;;4994409;28;20068;-75
2021/12/12 11:15:06;;;;;;;0.32;0.28;;;12.00;99.90;;;;;;4995347;28;20026;-76
2021/12/12 11:17:38;;;;;;;4.70;2.30;;;12.10;99.90;;;;;;4995151;28;20450;-75
2021/12/12 11:20:07;;;;;;;0.13;0.13;;;12.10;99.90;;;;;;4995086;28;20027;-75
2021/12/12 11:22:47;;;;;;;0.00;0.00;;;12.00;99.90;;;;;;4995121;28;20034;-76
2021/12/12 11:25:41;;;;;;;0.00;0.00;;;12.10;99.90;;;;;;4998109;28;20018;-75
2021/12/12 11:28:19;;;;;;;0.05;0.05;;;12.10;99.90;;;;;;5007552;28;20037;-75
2021/12/12 11:30:46;;;;;;;0.00;0.00;;;12.20;99.90;;;;;;5013885;28;20040;-75
2021/12/12 11:33:15;;;;;;;0.50;0.50;;;12.20;99.90;;;;;;5013488;28;20057;-75
2021/12/12 11:35:46;;;;;;;1.08;0.30;;;12.30;99.90;;;;;;5013098;28;20531;-76
2021/12/12 11:38:21;;;;;;;0.35;0.35;;;12.40;99.90;;;;;;5014377;28;20109;-75
2021/12/12 11:40:59;;;;;;;0.00;0.00;;;12.50;99.90;;;;;;5012353;28;20489;-75
2021/12/12 11:43:54;;;;;;;1.13;0.32;;;12.50;99.90;;;;;;5014262;28;20084;-75
2021/12/12 11:46:38;;;;;;;0.00;0.00;;;12.50;99.90;;;;;;5014190;28;20398;-75
2021/12/12 11:49:16;;;;;;;0.00;0.00;;;12.50;99.90;;;;;;5003945;28;20029;-75
2021/12/12 11:51:48;;;;;;;0.88;0.22;;;12.50;99.90;;;;;;4994759;28;20038;-75
2021/12/12 11:54:42;;;;;;;0.00;0.00;;;12.60;99.90;;;;;;4994036;28;20501;-75
2021/12/12 11:57:13;;;;;;;0.00;0.00;;;12.70;99.90;;;;;;4994710;28;20137;-75
2021/12/12 12:00:02;;;;;;;0.00;0.00;;;12.70;99.90;;;;;;4994450;28;20030;-76
2021/12/12 12:02:38;;;;;;;0.00;0.00;;;12.70;99.90;;;;;;4994046;28;20041;-75
2021/12/12 12:05:15;;;;;;;0.00;0.00;;;12.70;99.90;;;;;;4994289;28;20029;-75
2021/12/12 12:08:21;;;;;;;0.08;0.03;;;12.60;99.90;;;;;;4993269;28;20034;-75
2021/12/12 12:11:23;;;;;;;0.00;0.00;;;12.70;99.90;;;;;;4994281;28;20505;-75
2021/12/12 12:14:02;;;;;;;0.27;0.27;;;12.80;99.90;;;;;;4993366;28;20026;-76
2021/12/12 12:16:49;;;;;;;3.00;0.10;;;12.80;99.90;;;;;;4994090;28;20022;-76
2021/12/12 12:19:45;;;;;;;0.00;0.00;;;12.70;99.90;;;;;;4993827;28;20032;-75
2021/12/12 12:22:48;;;;;;;0.00;0.00;;;12.70;99.90;;;;;;4993685;28;20030;-75
2021/12/12 12:28:34;;;;;;;0.10;0.10;;;12.60;99.90;;;;;;5013623;28;20044;-76
2021/12/12 12:31:39;;;;;;;0.15;0.15;;;12.70;99.90;;;;;;5013562;28;20022;-75
2021/12/12 12:34:42;;;;;;;0.00;0.00;;;12.60;99.90;;;;;;5012086;28;20050;-76
2021/12/12 12:37:45;;;;;;;0.00;0.00;;;12.60;99.90;;;;;;5012188;28;20033;-76
2021/12/12 12:40:41;;;;;;;0.20;0.20;;;12.50;99.90;;;;;;5012892;28;20068;-76
2021/12/12 12:43:41;;;;;;;0.32;0.32;;;12.40;99.90;;;;;;5013205;28;20061;-75
2021/12/12 12:46:43;;;;;;;13.70;1.35;;;12.40;99.90;;;;;;5013026;28;20047;-76
2021/12/12 12:49:46;;;;;;;0.10;0.10;;;12.30;99.90;;;;;;5012685;28;20018;-75
2021/12/12 12:52:21;;;;;;;0.32;0.32;;;12.30;99.90;;;;;;5003709;28;20405;-75
2021/12/12 12:55:24;;;;;;;0.13;0.13;;;12.30;99.90;;;;;;4993420;28;20108;-76
2021/12/12 12:58:09;;;;;;;0.17;0.17;;;12.30;99.90;;;;;;4977373;28;20034;-75
2021/12/12 13:00:36;;;;;;;0.13;0.13;;;12.30;99.90;;;;;;5012852;28;20496;-76
2021/12/12 13:03:05;;;;;;;0.00;0.00;;;12.30;99.90;;;;;;5012576;28;20113;-75
2021/12/12 13:05:52;;;;;;;0.60;0.60;;;12.30;99.90;;;;;;5012827;28;20022;-76
2021/12/12 13:09:04;;;;;;;0.20;0.20;;;12.30;99.90;;;;;;5012639;28;20030;-77
2021/12/12 13:11:41;;;;;;;0.10;0.10;;;12.40;99.90;;;;;;5011495;28;20022;-75
2021/12/12 13:14:28;;;;;;;0.08;0.08;;;12.30;99.90;;;;;;5012457;28;20030;-75
2021/12/12 13:17:13;;;;;;;0.00;0.00;;;12.20;99.90;;;;;;5012713;28;20029;-75
2021/12/12 13:19:50;;;;;;;0.20;0.10;;;12.20;99.90;;;;;;5012684;28;20058;-76
2021/12/12 13:22:29;;;;;;;0.03;0.03;;;12.20;99.90;;;;;;5011017;28;20401;-75
2021/12/12 13:25:31;;;;;;;0.00;0.00;;;12.20;99.90;;;;;;5011899;28;20076;-75
2021/12/12 13:28:18;;;;;;;0.00;0.00;;;12.20;99.90;;;;;;4991609;28;20025;-76
2021/12/12 13:31:00;;;;;;;0.10;0.10;;;12.20;99.90;;;;;;4987923;28;20580;-76
2021/12/12 13:33:38;;;;;;;0.00;0.00;;;12.20;99.90;;;;;;4991749;28;20027;-76
2021/12/12 13:36:25;;;;;;;0.10;0.10;;;12.20;99.90;;;;;;4993016;28;20030;-76
2021/12/12 13:39:07;;;;;;;0.00;0.00;;;12.20;99.90;;;;;;4992938;28;20057;-75
2021/12/12 13:41:56;;;;;;;0.00;0.00;;;12.20;99.90;;;;;;4992873;28;20537;-76
2021/12/12 13:44:41;;;;;;;0.00;0.00;;;12.20;99.90;;;;;;4991183;28;20030;-76
2021/12/12 13:47:29;;;;;;;0.32;0.32;;;12.20;99.90;;;;;;4991554;28;20038;-76
2021/12/12 13:50:02;;;;;;;0.00;0.00;;;12.30;99.90;;;;;;4992643;28;20022;-76